Time;durP1;ratioP1;P1;durP2;ratioP2;P2;SDS_P1;SDS_P2;PMS_P1;PMS_P2;Temp;Humidity;BMP_temperature;BMP_pressure;BME280_temperature;BME280_humidity;BME280_pressure;Samples;Min_cycle;Max_cycle;Signal;HPM_P1;HPM_P2
2022/01/23 00:00:19;;;;;;;6.43;2.30;;;5.70;99.90;;;;;;4952066;29;20051;-76
2022/01/23 00:02:47;;;;;;;8.23;3.00;;;5.60;99.90;;;;;;4936575;29;20126;-76
2022/01/23 00:05:13;;;;;;;5.32;2.35;;;5.70;99.90;;;;;;4952301;29;20534;-76
2022/01/23 00:07:40;;;;;;;6.45;2.63;;;5.70;99.90;;;;;;4936508;29;20066;-76
2022/01/23 00:10:06;;;;;;;6.65;2.63;;;5.70;99.90;;;;;;4952219;29;20123;-76
2022/01/23 00:12:39;;;;;;;10.13;2.88;;;5.70;99.90;;;;;;4952620;29;20514;-76
2022/01/23 00:17:49;;;;;;;8.30;2.65;;;5.70;99.90;;;;;;4952459;29;19925;-76
2022/01/23 00:20:15;;;;;;;8.80;3.15;;;5.70;99.90;;;;;;4952674;29;20102;-76
2022/01/23 00:30:41;;;;;;;5.55;2.50;;;5.70;99.90;;;;;;4957124;28;20545;-78
2022/01/23 00:33:08;;;;;;;4.30;2.70;;;5.70;99.90;;;;;;4956440;29;20055;-79
2022/01/23 00:35:36;;;;;;;5.55;2.53;;;5.70;99.90;;;;;;4955879;29;20086;-78
2022/01/23 00:38:04;;;;;;;5.50;2.63;;;5.70;99.90;;;;;;4956018;29;20094;-78
2022/01/23 00:40:31;;;;;;;8.35;2.95;;;5.60;99.90;;;;;;4955878;29;20047;-78
2022/01/23 00:42:58;;;;;;;7.45;2.70;;;5.60;99.90;;;;;;4955809;29;20050;-78
2022/01/23 00:45:29;;;;;;;6.07;3.15;;;5.60;99.90;;;;;;4955489;29;20051;-78
2022/01/23 00:48:04;;;;;;;8.20;2.90;;;5.60;99.90;;;;;;4955744;29;20043;-79
2022/01/23 00:50:36;;;;;;;7.72;3.10;;;5.60;99.90;;;;;;4955670;29;20058;-78
2022/01/23 00:53:03;;;;;;;6.05;2.88;;;5.60;99.90;;;;;;4955758;29;20039;-76
2022/01/23 00:55:28;;;;;;;7.63;2.67;;;5.60;99.90;;;;;;4955361;29;20118;-76
2022/01/23 00:57:54;;;;;;;9.48;2.95;;;5.60;99.90;;;;;;4955581;29;20118;-76
2022/01/23 01:00:20;;;;;;;6.68;3.55;;;5.60;99.90;;;;;;4956669;29;20099;-76
2022/01/23 01:02:46;;;;;;;5.63;2.80;;;5.60;99.90;;;;;;4956697;29;20558;-76
2022/01/23 01:05:12;;;;;;;10.50;3.42;;;5.60;99.90;;;;;;4955183;29;20517;-76
2022/01/23 01:07:38;;;;;;;7.03;3.55;;;5.50;99.90;;;;;;4955722;29;20043;-76
2022/01/23 01:10:10;;;;;;;8.07;2.55;;;5.60;99.90;;;;;;4955231;29;20054;-76
2022/01/23 01:12:43;;;;;;;11.68;3.15;;;5.60;99.90;;;;;;4955324;29;20078;-76
2022/01/23 01:31:22;;;;;;;10.20;3.47;;;5.60;99.90;;;;;;4955001;29;20050;-76
2022/01/23 01:33:53;;;;;;;5.13;3.22;;;5.50;99.90;;;;;;4954963;29;20051;-76
2022/01/23 01:38:48;;;;;;;10.48;3.50;;;5.60;99.90;;;;;;4953729;28;20090;-76
2022/01/23 01:41:14;;;;;;;10.23;3.65;;;5.50;99.90;;;;;;4954751;29;20051;-77
2022/01/23 01:43:40;;;;;;;8.73;3.80;;;5.50;99.90;;;;;;4955412;29;20059;-76
2022/01/23 01:46:06;;;;;;;10.75;3.78;;;5.50;99.90;;;;;;4957710;29;20051;-76
2022/01/23 01:48:32;;;;;;;9.43;4.18;;;5.50;99.90;;;;;;4942432;29;20046;-77
2022/01/23 01:50:59;;;;;;;9.98;3.63;;;5.50;99.90;;;;;;4956807;29;20494;-76
2022/01/23 01:53:25;;;;;;;15.98;3.63;;;5.60;99.90;;;;;;4956516;29;20090;-76
2022/01/23 01:55:54;;;;;;;7.03;3.90;;;5.60;99.90;;;;;;4955577;29;20429;-77
2022/01/23 02:01:04;;;;;;;6.60;3.47;;;5.60;99.90;;;;;;4957825;28;20508;-77
2022/01/23 02:08:19;;;;;;;10.93;4.28;;;5.60;99.90;;;;;;4956070;29;20058;-77
2022/01/23 02:09:07;;;;;;;8.35;3.45;;;5.60;99.90;;;;;;4964544;28;20070;-76
2022/01/23 02:12:01;;;;;;;7.90;4.10;;;5.50;99.90;;;;;;4955655;29;20043;-77
2022/01/23 02:17:28;;;;;;;7.63;3.92;;;5.60;99.90;;;;;;4955600;29;20054;-77
2022/01/23 02:55:08;;;;;;;12.38;4.53;;;5.60;99.90;;;;;;4953624;29;20050;-76
2022/01/23 02:57:51;;;;;;;8.60;3.80;;;5.50;99.90;;;;;;4953410;29;20134;-76
2022/01/23 03:00:19;;;;;;;;;;;5.60;99.90;;;;;;4953692;29;20058;-76
2022/01/23 03:02:48;;;;;;;7.72;3.97;;;5.50;99.90;;;;;;4953236;29;20005;-76
2022/01/23 03:05:24;;;;;;;9.50;4.40;;;5.50;99.90;;;;;;4953043;29;20043;-78
2022/01/23 03:08:21;;;;;;;8.05;3.95;;;5.50;99.90;;;;;;4954600;28;20058;-76
2022/01/23 03:11:00;;;;;;;9.32;4.63;;;5.50;99.90;;;;;;4953102;29;20043;-76
2022/01/23 03:13:47;;;;;;;10.02;3.83;;;5.50;99.90;;;;;;4953175;29;20114;-76
2022/01/23 03:24:06;;;;;;;9.00;3.78;;;5.60;99.90;;;;;;4937218;29;20470;-76
2022/01/23 03:24:48;;;;;;;6.53;3.47;;;5.50;99.90;;;;;;4953092;29;20101;-76
2022/01/23 03:27:37;;;;;;;12.43;3.70;;;5.50;99.90;;;;;;4952801;29;20047;-77
2022/01/23 03:30:16;;;;;;;11.23;3.80;;;5.50;99.90;;;;;;4952694;29;20103;-76
2022/01/23 03:32:46;;;;;;;10.25;3.72;;;5.50;99.90;;;;;;4936979;29;20122;-76
2022/01/23 03:35:12;;;;;;;9.02;3.88;;;5.50;99.90;;;;;;4952953;29;20048;-76
2022/01/23 03:37:38;;;;;;;6.13;3.50;;;5.50;99.90;;;;;;4952804;29;20076;-76
2022/01/23 03:40:05;;;;;;;10.90;3.40;;;5.50;99.90;;;;;;4953010;29;20083;-76
2022/01/23 03:42:33;;;;;;;7.47;3.95;;;5.50;99.90;;;;;;4952683;29;20528;-77
2022/01/23 03:45:24;;;;;;;8.50;3.60;;;5.50;99.90;;;;;;4952601;29;20051;-76
2022/01/23 03:48:02;;;;;;;11.45;3.72;;;5.50;99.90;;;;;;4952410;29;20078;-76
2022/01/23 03:50:27;;;;;;;8.80;3.65;;;5.50;99.90;;;;;;4953904;28;20457;-76
2022/01/23 03:52:53;;;;;;;8.55;3.30;;;5.40;99.90;;;;;;4952627;29;20133;-76
2022/01/23 03:55:18;;;;;;;7.93;3.92;;;5.40;99.90;;;;;;4952386;29;20039;-77
2022/01/23 03:57:44;;;;;;;9.52;3.50;;;5.40;99.90;;;;;;4952652;29;20138;-76
2022/01/23 04:00:11;;;;;;;6.15;3.47;;;5.40;99.90;;;;;;4952514;28;20057;-76
2022/01/23 04:02:36;;;;;;;6.22;3.42;;;5.40;99.90;;;;;;4956274;29;20047;-76
2022/01/23 04:05:02;;;;;;;7.03;2.92;;;5.40;99.90;;;;;;4956580;29;20102;-76
2022/01/23 04:07:29;;;;;;;8.18;3.60;;;5.40;99.90;;;;;;4956443;29;20039;-76
2022/01/23 04:09:54;;;;;;;7.25;3.42;;;5.40;99.90;;;;;;4956509;29;20043;-76
2022/01/23 04:12:39;;;;;;;8.27;3.38;;;5.40;99.90;;;;;;4956431;29;20039;-76
2022/01/23 04:15:15;;;;;;;6.88;3.40;;;5.40;99.90;;;;;;4956204;29;20614;-76
2022/01/23 04:20:43;;;;;;;8.15;3.50;;;5.40;99.90;;;;;;4956170;29;20418;-77
2022/01/23 05:04:35;;;;;;;7.18;3.58;;;5.30;99.90;;;;;;4955424;29;20078;-77
2022/01/23 05:07:05;;;;;;;7.72;4.05;;;5.40;99.90;;;;;;4955279;29;20043;-76
2022/01/23 05:09:32;;;;;;;5.93;3.40;;;5.30;99.90;;;;;;4955244;29;20047;-76
2022/01/23 05:12:10;;;;;;;7.20;3.45;;;5.30;99.90;;;;;;4955474;28;20039;-76
2022/01/23 05:14:41;;;;;;;10.35;4.10;;;5.30;99.90;;;;;;4955305;29;20049;-76
2022/01/23 05:17:11;;;;;;;8.55;3.88;;;5.30;99.90;;;;;;4955062;29;20051;-76
2022/01/23 05:19:38;;;;;;;13.07;4.45;;;5.30;99.90;;;;;;4955095;29;20043;-76
2022/01/23 05:22:26;;;;;;;8.70;3.60;;;5.30;99.90;;;;;;4939204;29;20089;-76
2022/01/23 05:25:06;;;;;;;8.50;4.10;;;5.30;99.90;;;;;;4955143;29;20051;-76
2022/01/23 05:27:32;;;;;;;11.60;3.90;;;5.30;99.90;;;;;;4955094;29;20447;-76
2022/01/23 05:29:59;;;;;;;10.27;4.53;;;5.40;99.90;;;;;;4954948;29;20496;-76
2022/01/23 05:32:35;;;;;;;8.75;4.15;;;5.30;99.90;;;;;;4955052;29;20094;-76
2022/01/23 05:35:00;;;;;;;7.93;3.38;;;5.40;99.90;;;;;;4955960;28;20122;-78
2022/01/23 05:37:26;;;;;;;9.63;3.55;;;5.30;99.90;;;;;;4954953;29;20067;-76
2022/01/23 05:39:51;;;;;;;11.63;4.85;;;5.40;99.90;;;;;;4954795;29;20050;-76
2022/01/23 05:42:17;;;;;;;10.65;5.00;;;5.30;99.90;;;;;;4954802;29;20102;-76
2022/01/23 05:44:43;;;;;;;12.75;4.60;;;5.40;99.90;;;;;;4954758;29;20163;-76
2022/01/23 05:47:10;;;;;;;10.70;5.00;;;5.30;99.90;;;;;;4938523;29;20075;-76
2022/01/23 05:49:36;;;;;;;12.60;5.38;;;5.30;99.90;;;;;;4954463;29;20537;-77
2022/01/23 05:52:03;;;;;;;11.18;5.20;;;5.30;99.90;;;;;;4954613;29;20121;-76
2022/01/23 05:54:28;;;;;;;9.90;4.07;;;5.30;99.90;;;;;;4954544;29;20046;-76
2022/01/23 05:56:54;;;;;;;11.10;5.78;;;5.30;99.90;;;;;;4955698;29;20043;-77
2022/01/23 05:59:21;;;;;;;10.00;4.80;;;5.30;99.90;;;;;;4955530;28;20414;-76
2022/01/23 06:01:51;;;;;;;12.75;5.38;;;5.30;99.90;;;;;;4954474;29;20043;-76
2022/01/23 06:04:17;;;;;;;13.38;5.22;;;5.30;99.90;;;;;;4954302;29;20118;-76
2022/01/23 06:06:43;;;;;;;13.45;5.55;;;5.30;99.90;;;;;;4954187;29;20043;-76
2022/01/23 06:09:08;;;;;;;12.88;5.43;;;5.30;99.90;;;;;;4938420;29;20384;-77
2022/01/23 06:11:34;;;;;;;16.08;6.22;;;5.40;99.90;;;;;;4954293;29;20522;-76
2022/01/23 06:13:59;;;;;;;15.73;6.57;;;5.30;99.90;;;;;;4954599;29;20046;-76
2022/01/23 06:16:25;;;;;;;13.23;5.45;;;5.30;99.90;;;;;;4954155;29;20079;-77
2022/01/23 06:18:50;;;;;;;13.30;6.38;;;5.30;99.90;;;;;;4953905;29;20047;-76
2022/01/23 06:21:19;;;;;;;16.23;5.97;;;5.30;99.90;;;;;;4954055;29;20043;-76
2022/01/23 06:23:47;;;;;;;18.95;6.88;;;5.30;99.90;;;;;;4953501;28;20122;-76
2022/01/23 06:26:13;;;;;;;14.43;7.13;;;5.30;99.90;;;;;;4953935;29;20130;-76
2022/01/23 06:28:59;;;;;;;17.55;7.13;;;5.30;99.90;;;;;;4954404;29;20126;-77
2022/01/23 06:31:25;;;;;;;21.02;7.25;;;5.30;99.90;;;;;;4953959;29;20047;-77
2022/01/23 06:33:50;;;;;;;16.05;7.03;;;5.30;99.90;;;;;;4953934;29;20043;-76
2022/01/23 06:36:16;;;;;;;15.20;7.07;;;5.30;99.90;;;;;;4953607;29;20090;-76
2022/01/23 06:38:41;;;;;;;22.80;8.10;;;5.30;99.90;;;;;;4953977;29;20043;-76
2022/01/23 06:41:07;;;;;;;23.73;9.45;;;5.30;99.90;;;;;;4953628;29;20053;-78
2022/01/23 06:43:32;;;;;;;17.35;6.65;;;5.30;99.90;;;;;;4953924;29;20047;-76
2022/01/23 06:45:58;;;;;;;15.13;6.57;;;5.30;99.90;;;;;;4953686;29;20043;-78
2022/01/23 06:48:23;;;;;;;20.80;7.22;;;5.30;99.90;;;;;;4937707;29;20880;-78
2022/01/23 06:50:50;;;;;;;20.70;7.38;;;5.30;99.90;;;;;;4937589;29;20395;-79
2022/01/23 06:53:15;;;;;;;20.10;7.45;;;5.30;99.90;;;;;;4953450;29;20078;-78
2022/01/23 06:55:41;;;;;;;21.15;7.47;;;5.30;99.90;;;;;;4953476;29;20078;-78
2022/01/23 06:58:06;;;;;;;20.85;8.00;;;5.30;99.90;;;;;;4953255;29;20039;-78
2022/01/23 07:00:33;;;;;;;18.25;7.35;;;5.30;99.90;;;;;;4953304;29;20043;-79
2022/01/23 07:02:59;;;;;;;24.20;7.10;;;5.30;99.90;;;;;;4953547;29;20051;-78
2022/01/23 07:05:25;;;;;;;17.90;6.88;;;5.30;99.90;;;;;;4954353;28;20175;-78
2022/01/23 07:07:50;;;;;;;19.92;6.88;;;5.30;99.90;;;;;;4953659;29;20101;-78
2022/01/23 07:10:18;;;;;;;18.58;7.72;;;5.30;99.90;;;;;;4953171;29;20054;-79
2022/01/23 07:12:43;;;;;;;17.45;6.88;;;5.30;99.90;;;;;;4953056;29;20118;-78
2022/01/23 07:15:09;;;;;;;17.33;7.07;;;5.30;99.90;;;;;;4953118;29;20440;-78
2022/01/23 07:17:39;;;;;;;17.25;7.00;;;5.30;99.90;;;;;;4953046;29;20043;-78
2022/01/23 07:20:05;;;;;;;18.33;7.25;;;5.30;99.90;;;;;;4952969;29;20130;-78
2022/01/23 07:22:31;;;;;;;20.17;8.07;;;5.30;99.90;;;;;;4953214;29;20384;-78
2022/01/23 07:25:00;;;;;;;16.42;7.43;;;5.30;99.90;;;;;;4954213;28;20046;-78
2022/01/23 07:27:28;;;;;;;17.60;6.85;;;5.20;99.90;;;;;;4952789;29;20051;-78
2022/01/23 07:29:54;;;;;;;18.52;6.65;;;5.30;99.90;;;;;;4936999;29;20035;-79
2022/01/23 07:32:20;;;;;;;16.38;6.40;;;5.30;99.90;;;;;;4952854;29;20035;-78
2022/01/23 07:34:45;;;;;;;21.13;7.15;;;5.30;99.90;;;;;;4952602;28;20039;-78
2022/01/23 07:37:12;;;;;;;14.07;6.45;;;5.20;99.90;;;;;;4951935;29;20074;-78
2022/01/23 07:39:39;;;;;;;19.92;7.53;;;5.20;99.90;;;;;;4952728;29;20115;-78
2022/01/23 07:42:05;;;;;;;17.17;5.95;;;5.20;99.90;;;;;;4952712;29;20550;-78
2022/01/23 07:44:30;;;;;;;16.42;6.57;;;5.30;99.90;;;;;;4952602;29;20046;-79
2022/01/23 07:46:56;;;;;;;16.42;6.68;;;5.30;99.90;;;;;;4952425;29;20380;-78
2022/01/23 07:49:22;;;;;;;17.13;5.85;;;5.30;99.90;;;;;;4953734;28;20113;-79
2022/01/23 07:51:47;;;;;;;16.85;6.95;;;5.30;99.90;;;;;;4952676;29;20089;-78
2022/01/23 07:54:13;;;;;;;14.60;7.15;;;5.30;99.90;;;;;;4952571;29;20047;-78
2022/01/23 07:56:42;;;;;;;17.45;6.53;;;5.30;99.90;;;;;;4936386;29;20410;-78
2022/01/23 07:59:10;;;;;;;14.50;7.15;;;5.30;99.90;;;;;;4952635;29;20466;-78
2022/01/23 08:01:39;;;;;;;18.02;8.60;;;5.30;99.90;;;;;;4953734;28;20405;-78
2022/01/23 08:04:08;;;;;;;13.60;6.40;;;5.30;99.90;;;;;;4952546;29;20079;-79
2022/01/23 08:06:42;;;;;;;16.08;6.47;;;5.30;99.90;;;;;;4952370;28;20062;-77
2022/01/23 08:09:09;;;;;;;13.25;6.07;;;5.30;99.90;;;;;;4953293;29;20055;-77
2022/01/23 08:11:34;;;;;;;15.43;5.90;;;5.30;99.90;;;;;;4954045;29;20043;-77
2022/01/23 08:14:00;;;;;;;12.95;5.57;;;5.30;99.90;;;;;;4953267;29;20147;-77
2022/01/23 08:16:26;;;;;;;12.13;5.35;;;5.40;99.90;;;;;;4953227;29;20043;-77
2022/01/23 08:18:51;;;;;;;13.43;5.65;;;5.40;99.90;;;;;;4939341;29;20043;-80
2022/01/23 08:21:17;;;;;;;18.70;8.05;;;5.40;99.90;;;;;;4939334;29;20050;-80
2022/01/23 08:23:42;;;;;;;14.13;5.32;;;5.40;99.90;;;;;;4954217;29;20458;-79
2022/01/23 08:26:09;;;;;;;13.10;6.28;;;5.40;99.90;;;;;;4954061;28;20049;-79
2022/01/23 08:28:35;;;;;;;13.85;6.57;;;5.50;99.90;;;;;;4954638;28;20043;-79
2022/01/23 08:31:00;;;;;;;15.95;5.47;;;5.50;99.90;;;;;;4953139;29;20039;-80
2022/01/23 08:33:27;;;;;;;13.75;5.22;;;5.50;99.90;;;;;;4953603;29;20043;-79
2022/01/23 08:35:56;;;;;;;11.13;5.47;;;5.50;99.90;;;;;;4937606;29;20090;-80
2022/01/23 08:38:23;;;;;;;12.40;5.10;;;5.50;99.90;;;;;;4953350;29;20039;-80
2022/01/23 08:41:49;;;;;;;14.73;4.63;;;5.50;99.90;;;;;;4953761;29;20553;-80
2022/01/23 08:43:34;;;;;;;9.05;4.88;;;5.60;99.90;;;;;;4954210;28;20043;-80
2022/01/23 08:45:59;;;;;;;13.23;5.28;;;5.60;99.90;;;;;;4953196;29;20147;-80
2022/01/23 08:48:25;;;;;;;11.77;4.80;;;5.50;99.90;;;;;;4957376;28;20035;-79
2022/01/23 08:50:50;;;;;;;12.32;4.78;;;5.60;99.90;;;;;;4956999;29;20071;-79
2022/01/23 08:53:16;;;;;;;14.07;5.20;;;5.60;99.90;;;;;;4958229;29;20031;-80
2022/01/23 08:55:41;;;;;;;11.10;4.90;;;5.60;99.90;;;;;;4957611;28;20043;-80
2022/01/23 08:58:07;;;;;;;13.80;5.88;;;5.60;99.90;;;;;;4941454;29;20046;-80
2022/01/23 09:00:33;;;;;;;10.13;4.70;;;5.60;99.90;;;;;;4958291;29;20275;-79
2022/01/23 09:02:58;;;;;;;11.70;4.53;;;5.70;99.90;;;;;;4956285;29;20054;-77
2022/01/23 09:05:26;;;;;;;11.32;5.95;;;5.70;99.90;;;;;;4956575;29;20035;-77
2022/01/23 09:07:51;;;;;;;11.15;4.95;;;5.70;99.90;;;;;;4939506;29;20055;-78
2022/01/23 09:10:26;;;;;;;11.27;5.18;;;5.70;99.90;;;;;;4939347;29;20051;-78
2022/01/23 09:13:09;;;;;;;13.98;5.22;;;5.70;99.90;;;;;;4957256;28;20066;-78
2022/01/23 09:15:35;;;;;;;15.15;4.72;;;5.70;99.90;;;;;;4956630;28;20123;-78
2022/01/23 09:18:02;;;;;;;13.38;5.57;;;5.80;99.90;;;;;;4956100;29;20079;-79
2022/01/23 09:20:28;;;;;;;14.90;5.25;;;5.80;99.90;;;;;;4955413;29;20043;-78
2022/01/23 09:22:53;;;;;;;11.38;4.50;;;5.90;99.90;;;;;;4939283;29;20050;-79
2022/01/23 09:25:19;;;;;;;14.73;6.55;;;5.80;99.90;;;;;;4939132;29;20066;-80
2022/01/23 09:27:45;;;;;;;10.45;5.53;;;5.90;99.90;;;;;;4939604;29;20526;-81
2022/01/23 09:30:20;;;;;;;16.55;7.18;;;5.90;99.90;;;;;;4938987;29;20483;-78
2022/01/23 09:32:47;;;;;;;13.73;6.43;;;6.00;99.90;;;;;;4955305;29;20438;-78
2022/01/23 09:35:14;;;;;;;15.25;5.88;;;6.00;99.90;;;;;;4955994;29;20126;-78
2022/01/23 09:37:40;;;;;;;13.15;6.30;;;6.00;99.90;;;;;;4956448;28;20049;-78
2022/01/23 09:40:07;;;;;;;13.35;6.00;;;6.10;99.90;;;;;;4955004;29;20047;-78
2022/01/23 09:42:47;;;;;;;13.35;5.60;;;6.10;99.90;;;;;;4954960;29;20039;-78
2022/01/23 09:45:14;;;;;;;17.10;6.47;;;6.10;99.90;;;;;;4956271;28;20227;-78
2022/01/23 09:47:40;;;;;;;18.70;6.07;;;6.30;99.90;;;;;;4955924;28;20039;-78
2022/01/23 09:50:08;;;;;;;14.07;6.25;;;6.10;99.90;;;;;;4954649;29;20055;-79
2022/01/23 09:52:35;;;;;;;13.63;6.53;;;6.20;99.90;;;;;;4954520;29;20050;-78
2022/01/23 09:55:07;;;;;;;14.27;6.10;;;6.20;99.90;;;;;;4956085;28;20078;-78
2022/01/23 09:57:36;;;;;;;16.20;6.18;;;6.30;99.90;;;;;;4954620;29;20039;-78
2022/01/23 10:00:06;;;;;;;13.85;6.45;;;6.30;99.90;;;;;;4954609;28;20075;-81
2022/01/23 10:02:32;;;;;;;15.65;6.63;;;6.30;99.90;;;;;;4954383;29;20122;-78
2022/01/23 10:04:57;;;;;;;13.45;6.13;;;6.40;99.90;;;;;;4955828;28;20107;-78
2022/01/23 10:07:23;;;;;;;13.55;6.65;;;6.40;99.90;;;;;;4955789;28;20070;-78
2022/01/23 10:09:56;;;;;;;17.05;6.38;;;6.40;99.90;;;;;;4954268;29;20473;-78
2022/01/23 10:12:26;;;;;;;12.80;5.82;;;6.50;99.90;;;;;;4954218;29;20441;-78
2022/01/23 10:14:53;;;;;;;11.35;6.30;;;6.50;99.90;;;;;;4955909;28;20394;-77
2022/01/23 10:17:19;;;;;;;15.55;6.75;;;6.60;99.90;;;;;;4954166;29;20110;-78
2022/01/23 10:19:45;;;;;;;14.55;6.50;;;6.60;99.90;;;;;;4938341;29;20507;-80
2022/01/23 10:22:12;;;;;;;13.10;6.30;;;6.60;99.90;;;;;;4955479;28;20054;-78
2022/01/23 10:24:38;;;;;;;13.48;6.43;;;6.60;99.90;;;;;;4954464;29;20063;-78
2022/01/23 10:27:04;;;;;;;11.27;5.63;;;6.60;99.90;;;;;;4953603;29;20035;-78
2022/01/23 10:29:35;;;;;;;11.05;5.97;;;6.70;99.90;;;;;;4955233;29;20502;-78
2022/01/23 10:32:20;;;;;;;10.25;5.40;;;6.70;99.90;;;;;;4970446;28;20034;-81
2022/01/23 10:34:57;;;;;;;9.82;4.93;;;6.70;99.90;;;;;;4953787;29;20047;-78
2022/01/23 10:37:27;;;;;;;9.32;4.07;;;6.80;99.90;;;;;;4955157;29;20509;-79
2022/01/23 10:39:53;;;;;;;7.43;3.38;;;6.80;99.90;;;;;;4955216;29;20426;-79
2022/01/23 10:42:26;;;;;;;7.15;3.50;;;6.80;99.90;;;;;;4953947;29;20046;-78
2022/01/23 10:47:47;;;;;;;6.45;3.35;;;6.90;99.90;;;;;;4953654;29;20050;-78
2022/01/23 10:50:13;;;;;;;9.15;3.70;;;6.90;99.90;;;;;;4953764;29;20047;-81
2022/01/23 10:52:43;;;;;;;8.65;3.45;;;7.00;99.90;;;;;;4938925;29;20057;-79
2022/01/23 10:55:12;;;;;;;8.52;3.45;;;7.00;99.90;;;;;;4957475;29;20115;-80
2022/01/23 10:57:43;;;;;;;6.43;3.22;;;6.90;99.90;;;;;;4972444;28;20094;-80
2022/01/23 11:00:20;;;;;;;6.70;3.75;;;7.00;99.90;;;;;;4940288;29;20087;-80
2022/01/23 11:02:45;;;;;;;9.07;3.72;;;7.00;99.90;;;;;;4972683;28;20050;-80
2022/01/23 11:05:12;;;;;;;6.63;3.40;;;7.00;99.90;;;;;;4955728;29;20055;-79
2022/01/23 11:07:43;;;;;;;5.72;3.25;;;7.00;99.90;;;;;;4958463;29;20047;-80
2022/01/23 11:10:13;;;;;;;10.50;3.85;;;7.10;99.90;;;;;;4940783;29;20090;-80
2022/01/23 11:17:22;;;;;;;7.75;3.63;;;7.10;99.90;;;;;;4957385;29;20039;-78
2022/01/23 11:18:36;;;;;;;4.90;2.38;;;7.30;99.90;;;;;;4954442;28;20050;-79
2022/01/23 11:21:22;;;;;;;5.03;2.60;;;7.40;99.90;;;;;;4954374;29;20039;-79
2022/01/23 11:23:56;;;;;;;5.05;2.35;;;7.40;99.90;;;;;;4952874;29;20059;-79
2022/01/23 11:26:25;;;;;;;5.45;2.45;;;7.40;99.90;;;;;;4953080;29;20090;-79
2022/01/23 11:28:50;;;;;;;5.70;2.70;;;7.40;99.90;;;;;;4937039;29;20050;-80
2022/01/23 11:31:18;;;;;;;4.32;2.60;;;7.50;99.90;;;;;;4954198;28;20039;-81
2022/01/23 11:33:46;;;;;;;4.45;2.47;;;7.50;99.90;;;;;;4936933;29;20054;-79
2022/01/23 11:36:12;;;;;;;3.13;1.70;;;7.60;99.90;;;;;;4969022;28;20051;-78
2022/01/23 11:38:39;;;;;;;0.95;0.70;;;7.60;99.90;;;;;;4954749;29;20043;-79
2022/01/23 11:54:47;;;;;;;1.60;0.80;;;7.50;99.90;;;;;;4962744;29;20047;-81
2022/01/23 11:57:40;;;;;;;1.40;0.70;;;7.50;99.90;;;;;;4960680;29;20050;-81
2022/01/23 12:00:24;;;;;;;2.30;1.10;;;7.40;99.90;;;;;;4961255;29;20047;-80
2022/01/23 12:03:15;;;;;;;1.65;1.13;;;7.40;99.90;;;;;;4963140;29;20062;-80
2022/01/23 12:05:44;;;;;;;2.92;1.50;;;7.40;99.90;;;;;;4962387;29;20098;-80
2022/01/23 12:08:35;;;;;;;2.08;0.85;;;7.40;99.90;;;;;;4964018;28;20122;-80
2022/01/23 12:16:30;;;;;;;2.00;0.63;;;7.30;99.90;;;;;;4964975;29;20039;-80
2022/01/23 12:19:18;;;;;;;0.35;0.30;;;7.30;99.90;;;;;;4965808;28;20498;-80
2022/01/23 12:21:45;;;;;;;1.63;0.68;;;7.30;99.90;;;;;;4942960;29;20405;-80
2022/01/23 12:24:14;;;;;;;1.55;0.70;;;7.40;99.90;;;;;;4962239;29;20437;-80
2022/01/23 12:26:41;;;;;;;0.90;0.50;;;7.30;99.90;;;;;;4958920;29;20446;-80
2022/01/23 12:29:13;;;;;;;3.38;0.50;;;7.30;99.90;;;;;;4959640;29;20414;-79
2022/01/23 12:31:41;;;;;;;2.15;0.60;;;7.40;99.90;;;;;;4963650;29;20533;-80
2022/01/23 12:34:07;;;;;;;0.63;0.40;;;7.40;99.90;;;;;;4960943;29;20411;-80
2022/01/23 12:36:40;;;;;;;1.05;0.50;;;7.30;99.90;;;;;;4961808;29;20042;-80
2022/01/23 12:39:09;;;;;;;0.52;0.50;;;7.40;99.90;;;;;;4960140;29;20114;-80
2022/01/23 12:41:46;;;;;;;0.95;0.52;;;7.40;99.90;;;;;;4959561;29;20528;-80
2022/01/23 12:44:25;;;;;;;1.17;0.70;;;7.40;99.90;;;;;;4941704;29;20405;-80
2022/01/23 12:46:53;;;;;;;1.48;0.40;;;7.40;99.90;;;;;;4942124;29;20051;-80
2022/01/23 12:49:20;;;;;;;0.88;0.57;;;7.40;99.90;;;;;;4959197;29;20035;-80
2022/01/23 12:51:48;;;;;;;1.83;0.60;;;7.40;99.90;;;;;;4974094;28;20043;-80
2022/01/23 12:54:20;;;;;;;1.20;0.70;;;7.40;99.90;;;;;;4958125;29;20043;-80
2022/01/23 12:56:48;;;;;;;0.85;0.60;;;7.40;99.90;;;;;;4958029;29;20079;-80
2022/01/23 12:59:27;;;;;;;1.95;1.05;;;7.30;99.90;;;;;;4956669;29;20039;-79
2022/01/23 13:01:58;;;;;;;1.42;0.70;;;7.30;99.90;;;;;;4957871;28;20126;-79
2022/01/23 13:04:29;;;;;;;1.55;0.80;;;7.30;99.90;;;;;;4957972;29;20059;-81
2022/01/23 13:06:59;;;;;;;2.03;1.02;;;7.20;99.90;;;;;;4959156;29;20078;-80
2022/01/23 13:09:53;;;;;;;3.03;1.30;;;7.30;99.90;;;;;;4958049;29;20462;-80
2022/01/23 13:12:31;;;;;;;2.42;0.47;;;7.40;99.90;;;;;;4958711;29;20050;-80
2022/01/23 13:18:00;;;;;;;3.80;0.60;;;7.20;99.90;;;;;;4960692;29;20078;-82
2022/01/23 13:29:54;;;;;;;4.07;0.80;;;7.30;99.90;;;;;;4965674;28;20123;-80
2022/01/23 13:32:42;;;;;;;4.63;1.38;;;7.30;99.90;;;;;;4956445;29;20133;-80
2022/01/23 13:35:06;;;;;;;1.83;0.93;;;7.30;99.90;;;;;;4954895;29;20123;-80
2022/01/23 13:37:36;;;;;;;;;;;7.30;99.90;;;;;;4956343;28;20059;-80
2022/01/23 13:40:09;;;;;;;1.65;0.90;;;7.20;99.90;;;;;;4956142;29;19918;-80
2022/01/23 13:49:16;;;;;;;1.73;1.10;;;7.20;99.90;;;;;;4955583;29;20130;-80
2022/01/23 14:02:45;;;;;;;1.88;0.90;;;7.20;99.90;;;;;;4956077;29;20050;-80
2022/01/23 14:05:20;;;;;;;1.58;1.10;;;7.20;99.90;;;;;;4971439;28;20047;-80
2022/01/23 14:07:57;;;;;;;1.63;0.90;;;7.10;99.90;;;;;;4955499;29;20524;-81
2022/01/23 14:10:28;;;;;;;2.80;0.80;;;7.10;99.90;;;;;;4955406;29;20046;-80
2022/01/23 14:13:03;;;;;;;2.35;1.10;;;7.20;99.90;;;;;;4955055;29;20063;-80
2022/01/23 14:15:29;;;;;;;2.92;1.23;;;7.20;99.90;;;;;;4971262;28;20509;-80
2022/01/23 14:18:19;;;;;;;2.55;1.17;;;7.20;99.90;;;;;;4955728;29;20043;-80
2022/01/23 14:21:01;;;;;;;1.67;1.10;;;7.10;99.90;;;;;;4954951;29;20043;-80
2022/01/23 14:23:28;;;;;;;2.97;1.17;;;7.10;99.90;;;;;;4954786;29;20529;-80
2022/01/23 14:25:57;;;;;;;2.20;1.02;;;7.10;99.90;;;;;;4955253;29;20398;-80
2022/01/23 14:28:28;;;;;;;2.20;0.68;;;7.00;99.90;;;;;;4954809;29;20047;-80
2022/01/23 14:30:58;;;;;;;2.92;0.95;;;7.10;99.90;;;;;;4954795;29;20147;-80
2022/01/23 14:33:28;;;;;;;5.22;1.52;;;7.00;99.90;;;;;;4955099;29;20102;-80
2022/01/23 14:35:54;;;;;;;2.80;1.30;;;7.00;99.90;;;;;;4954449;29;20051;-80
2022/01/23 14:38:26;;;;;;;4.93;1.30;;;7.00;99.90;;;;;;4971043;28;20168;-80
2022/01/23 14:41:09;;;;;;;2.08;1.38;;;7.00;99.90;;;;;;4954740;28;20051;-80
2022/01/23 14:43:39;;;;;;;1.42;1.10;;;7.00;99.90;;;;;;4955692;29;20556;-80
2022/01/23 14:46:09;;;;;;;3.13;1.10;;;7.00;99.90;;;;;;4954231;28;20077;-80
2022/01/23 14:48:44;;;;;;;1.77;1.02;;;7.00;99.90;;;;;;4955101;29;20139;-79
2022/01/23 14:51:10;;;;;;;3.97;1.13;;;7.00;99.90;;;;;;4954384;29;20490;-80
2022/01/23 14:53:38;;;;;;;2.35;0.80;;;6.90;99.90;;;;;;4954325;29;20545;-79
2022/01/23 14:56:06;;;;;;;3.38;1.02;;;6.90;99.90;;;;;;4969872;28;20531;-80
2022/01/23 14:58:33;;;;;;;1.15;0.70;;;6.90;99.90;;;;;;4954246;29;20050;-80
2022/01/23 15:01:00;;;;;;;1.48;0.70;;;6.90;99.90;;;;;;4956518;29;20062;-79
2022/01/23 15:03:27;;;;;;;1.75;1.08;;;6.80;99.90;;;;;;4972790;28;20051;-79
2022/01/23 15:05:54;;;;;;;1.65;0.93;;;6.80;99.90;;;;;;4973325;28;20051;-79
2022/01/23 15:08:24;;;;;;;1.92;1.10;;;6.80;99.90;;;;;;4940300;29;20046;-79
2022/01/23 15:10:51;;;;;;;1.33;1.08;;;6.80;99.90;;;;;;4957240;29;20085;-79
2022/01/23 15:13:19;;;;;;;1.73;1.08;;;6.80;99.90;;;;;;4957286;29;20039;-79
2022/01/23 15:15:45;;;;;;;2.55;1.60;;;6.80;99.90;;;;;;4956007;29;20565;-79
2022/01/23 15:18:13;;;;;;;1.25;0.90;;;6.80;99.90;;;;;;4957484;29;20047;-79
2022/01/23 15:20:39;;;;;;;1.27;0.60;;;6.70;99.90;;;;;;4955236;29;20050;-79
2022/01/23 15:23:05;;;;;;;1.40;0.50;;;6.70;99.90;;;;;;4956393;29;20043;-79
2022/01/23 15:25:32;;;;;;;1.13;0.85;;;6.70;99.90;;;;;;4956567;29;20039;-79
2022/01/23 15:27:58;;;;;;;1.13;0.73;;;6.70;99.90;;;;;;4956942;29;20363;-79
2022/01/23 15:30:25;;;;;;;1.23;0.60;;;6.70;99.90;;;;;;4956210;29;20047;-79
2022/01/23 15:32:53;;;;;;;1.00;0.60;;;6.70;99.90;;;;;;4956053;29;20051;-79
2022/01/23 15:35:20;;;;;;;1.33;0.50;;;6.60;99.90;;;;;;4955550;29;20509;-79
2022/01/23 15:37:46;;;;;;;3.20;0.60;;;6.60;99.90;;;;;;4955787;29;20074;-79
2022/01/23 15:40:14;;;;;;;1.08;0.47;;;6.60;99.90;;;;;;4972848;28;20051;-79
2022/01/23 15:42:41;;;;;;;0.88;0.57;;;6.60;99.90;;;;;;4956348;29;20039;-79
2022/01/23 15:45:08;;;;;;;1.20;0.60;;;6.60;99.90;;;;;;4956323;29;20540;-79
2022/01/23 15:47:34;;;;;;;0.75;0.47;;;6.60;99.90;;;;;;4972040;28;20560;-79
2022/01/23 15:50:01;;;;;;;1.83;0.77;;;6.60;99.90;;;;;;4955797;29;20086;-79
2022/01/23 15:52:26;;;;;;;1.10;0.57;;;6.60;99.90;;;;;;4971840;28;20122;-79
2022/01/23 15:54:52;;;;;;;2.10;0.85;;;6.60;99.90;;;;;;4972191;28;20101;-79
2022/01/23 15:57:17;;;;;;;2.95;1.00;;;6.50;99.90;;;;;;4970936;28;20387;-79
2022/01/23 15:59:43;;;;;;;1.40;0.55;;;6.50;99.90;;;;;;4971374;28;20047;-79
2022/01/23 16:02:09;;;;;;;1.58;0.70;;;6.50;99.90;;;;;;4955267;29;20122;-79